sensor_id;sensor_type;location;lat;lon;timestamp;P1;durP1;ratioP1;P2;durP2;ratioP2
21503;SDS011;10913;51.992;9.228;2022-09-29T08:17:07;10.05;;;8.20;;
21503;SDS011;10913;51.992;9.228;2022-09-29T08:19:32;9.63;;;8.63;;
21503;SDS011;10913;51.992;9.228;2022-09-29T08:21:58;10.07;;;8.60;;
21503;SDS011;10913;51.992;9.228;2022-09-29T08:24:23;9.63;;;8.38;;
21503;SDS011;10913;51.992;9.228;2022-09-29T08:26:49;9.73;;;8.75;;
21503;SDS011;10913;51.992;9.228;2022-09-29T08:29:14;9.10;;;8.20;;
21503;SDS011;10913;51.992;9.228;2022-09-29T08:31:39;10.38;;;9.27;;
21503;SDS011;10913;51.992;9.228;2022-09-29T08:34:05;9.10;;;8.20;;
21503;SDS011;10913;51.992;9.228;2022-09-29T08:36:31;10.80;;;9.75;;
21503;SDS011;10913;51.992;9.228;2022-09-29T08:38:56;9.93;;;9.00;;
21503;SDS011;10913;51.992;9.228;2022-09-29T08:52:20;9.40;;;8.60;;
21503;SDS011;10913;51.992;9.228;2022-09-29T08:54:52;8.32;;;7.53;;
21503;SDS011;10913;51.992;9.228;2022-09-29T08:57:22;9.10;;;8.18;;
21503;SDS011;10913;51.992;9.228;2022-09-29T08:59:53;9.07;;;7.35;;
21503;SDS011;10913;51.992;9.228;2022-09-29T09:05:19;8.13;;;7.43;;
21503;SDS011;10913;51.992;9.228;2022-09-29T09:16:10;9.25;;;8.45;;
21503;SDS011;10913;51.992;9.228;2022-09-29T09:18:54;9.75;;;8.85;;
21503;SDS011;10913;51.992;9.228;2022-09-29T09:21:38;8.07;;;7.32;;
21503;SDS011;10913;51.992;9.228;2022-09-29T09:26:35;8.20;;;7.50;;
21503;SDS011;10913;51.992;9.228;2022-09-29T09:29:06;9.55;;;8.63;;
21503;SDS011;10913;51.992;9.228;2022-09-29T09:31:42;9.77;;;8.88;;
21503;SDS011;10913;51.992;9.228;2022-09-29T09:41:56;7.05;;;6.43;;
21503;SDS011;10913;51.992;9.228;2022-09-29T09:44:35;4.97;;;4.55;;
21503;SDS011;10913;51.992;9.228;2022-09-29T09:47:15;4.00;;;3.58;;
21503;SDS011;10913;51.992;9.228;2022-09-29T09:49:44;4.35;;;2.90;;
21503;SDS011;10913;51.992;9.228;2022-09-29T09:54:57;2.80;;;2.55;;
21503;SDS011;10913;51.992;9.228;2022-09-29T10:00:33;3.30;;;3.00;;
21503;SDS011;10913;51.992;9.228;2022-09-29T10:03:05;3.72;;;3.25;;
21503;SDS011;10913;51.992;9.228;2022-09-29T10:05:34;3.35;;;3.05;;
21503;SDS011;10913;51.992;9.228;2022-09-29T10:08:05;3.35;;;3.05;;
21503;SDS011;10913;51.992;9.228;2022-09-29T10:10:34;3.97;;;3.25;;
21503;SDS011;10913;51.992;9.228;2022-09-29T10:18:06;4.25;;;3.67;;
21503;SDS011;10913;51.992;9.228;2022-09-29T10:20:38;3.83;;;3.13;;
21503;SDS011;10913;51.992;9.228;2022-09-29T10:23:19;4.07;;;3.58;;
21503;SDS011;10913;51.992;9.228;2022-09-29T10:25:53;3.88;;;3.25;;
21503;SDS011;10913;51.992;9.228;2022-09-29T10:28:22;3.83;;;3.40;;
21503;SDS011;10913;51.992;9.228;2022-09-29T10:30:50;4.55;;;3.22;;
21503;SDS011;10913;51.992;9.228;2022-09-29T10:33:18;4.68;;;3.00;;
21503;SDS011;10913;51.992;9.228;2022-09-29T10:35:48;2.97;;;2.67;;
21503;SDS011;10913;51.992;9.228;2022-09-29T10:38:26;4.80;;;3.70;;
21503;SDS011;10913;51.992;9.228;2022-09-29T10:40:56;5.63;;;3.65;;
21503;SDS011;10913;51.992;9.228;2022-09-29T10:43:25;3.60;;;3.30;;
21503;SDS011;10913;51.992;9.228;2022-09-29T10:49:07;3.47;;;3.17;;
21503;SDS011;10913;51.992;9.228;2022-09-29T10:51:36;4.68;;;3.53;;
21503;SDS011;10913;51.992;9.228;2022-09-29T10:54:08;3.70;;;3.30;;
21503;SDS011;10913;51.992;9.228;2022-09-29T10:56:38;4.50;;;3.78;;
21503;SDS011;10913;51.992;9.228;2022-09-29T10:59:11;4.57;;;3.72;;
21503;SDS011;10913;51.992;9.228;2022-09-29T11:01:42;3.47;;;3.17;;
21503;SDS011;10913;51.992;9.228;2022-09-29T11:04:19;4.13;;;3.05;;
21503;SDS011;10913;51.992;9.228;2022-09-29T11:06:48;4.15;;;3.75;;
21503;SDS011;10913;51.992;9.228;2022-09-29T11:11:51;3.22;;;2.92;;
21503;SDS011;10913;51.992;9.228;2022-09-29T11:16:58;2.70;;;2.50;;
21503;SDS011;10913;51.992;9.228;2022-09-29T11:19:25;3.33;;;2.72;;
21503;SDS011;10913;51.992;9.228;2022-09-29T11:54:02;2.60;;;2.40;;
21503;SDS011;10913;51.992;9.228;2022-09-29T12:05:18;3.45;;;3.15;;
21503;SDS011;10913;51.992;9.228;2022-09-29T12:13:34;2.30;;;2.05;;
21503;SDS011;10913;51.992;9.228;2022-09-29T12:16:13;2.67;;;1.90;;
21503;SDS011;10913;51.992;9.228;2022-09-29T12:21:19;1.50;;;1.40;;
21503;SDS011;10913;51.992;9.228;2022-09-29T12:23:55;1.60;;;1.50;;
21503;SDS011;10913;51.992;9.228;2022-09-29T12:26:22;2.45;;;1.67;;
21503;SDS011;10913;51.992;9.228;2022-09-29T12:28:54;2.00;;;1.80;;
21503;SDS011;10913;51.992;9.228;2022-09-29T12:34:00;2.87;;;1.73;;
21503;SDS011;10913;51.992;9.228;2022-09-29T12:39:23;1.52;;;1.42;;
21503;SDS011;10913;51.992;9.228;2022-09-29T12:41:55;2.08;;;1.55;;
21503;SDS011;10913;51.992;9.228;2022-09-29T12:44:43;2.20;;;1.60;;
21503;SDS011;10913;51.992;9.228;2022-09-29T12:47:17;1.70;;;1.50;;
21503;SDS011;10913;51.992;9.228;2022-09-29T12:49:58;1.38;;;1.10;;
21503;SDS011;10913;51.992;9.228;2022-09-29T12:53:02;1.15;;;1.02;;
21503;SDS011;10913;51.992;9.228;2022-09-29T12:55:40;1.38;;;1.13;;
21503;SDS011;10913;51.992;9.228;2022-09-29T12:58:42;1.20;;;1.10;;
21503;SDS011;10913;51.992;9.228;2022-09-29T13:01:19;2.10;;;1.20;;
21503;SDS011;10913;51.992;9.228;2022-09-29T13:04:16;1.48;;;1.20;;
21503;SDS011;10913;51.992;9.228;2022-09-29T13:07:11;1.63;;;1.30;;
21503;SDS011;10913;51.992;9.228;2022-09-29T13:09:46;2.08;;;1.80;;
21503;SDS011;10913;51.992;9.228;2022-09-29T13:26:05;2.10;;;1.10;;
21503;SDS011;10913;51.992;9.228;2022-09-29T13:29:02;1.52;;;1.30;;
21503;SDS011;10913;51.992;9.228;2022-09-29T13:31:35;1.48;;;1.20;;
21503;SDS011;10913;51.992;9.228;2022-09-29T13:34:03;1.25;;;1.20;;
21503;SDS011;10913;51.992;9.228;2022-09-29T13:39:03;2.70;;;1.30;;
21503;SDS011;10913;51.992;9.228;2022-09-29T13:44:04;1.25;;;1.15;;
21503;SDS011;10913;51.992;9.228;2022-09-29T13:46:42;1.65;;;1.05;;
21503;SDS011;10913;51.992;9.228;2022-09-29T13:51:41;1.30;;;1.15;;
21503;SDS011;10913;51.992;9.228;2022-09-29T13:54:20;1.73;;;1.30;;
21503;SDS011;10913;51.992;9.228;2022-09-29T13:59:31;1.50;;;1.30;;
21503;SDS011;10913;51.992;9.228;2022-09-29T14:01:58;2.45;;;1.70;;
21503;SDS011;10913;51.992;9.228;2022-09-29T14:10:03;2.75;;;1.65;;
21503;SDS011;10913;51.992;9.228;2022-09-29T14:12:38;1.70;;;1.33;;
21503;SDS011;10913;51.992;9.228;2022-09-29T14:15:06;2.05;;;1.42;;
21503;SDS011;10913;51.992;9.228;2022-09-29T14:17:37;2.10;;;1.70;;
21503;SDS011;10913;51.992;9.228;2022-09-29T14:22:56;2.30;;;1.70;;
21503;SDS011;10913;51.992;9.228;2022-09-29T14:25:27;1.98;;;1.60;;
21503;SDS011;10913;51.992;9.228;2022-09-29T14:28:02;1.50;;;1.40;;
21503;SDS011;10913;51.992;9.228;2022-09-29T14:33:01;1.52;;;1.42;;
21503;SDS011;10913;51.992;9.228;2022-09-29T14:35:37;3.33;;;2.08;;
21503;SDS011;10913;51.992;9.228;2022-09-29T14:40:55;2.50;;;1.30;;
21503;SDS011;10913;51.992;9.228;2022-09-29T14:43:34;1.95;;;1.27;;
21503;SDS011;10913;51.992;9.228;2022-09-29T14:55:29;2.08;;;1.30;;
21503;SDS011;10913;51.992;9.228;2022-09-29T15:00:58;2.65;;;1.50;;
21503;SDS011;10913;51.992;9.228;2022-09-29T15:03:44;1.35;;;1.15;;
21503;SDS011;10913;51.992;9.228;2022-09-29T15:06:15;1.13;;;0.90;;
21503;SDS011;10913;51.992;9.228;2022-09-29T15:11:29;1.50;;;1.10;;
21503;SDS011;10913;51.992;9.228;2022-09-29T15:13:57;2.47;;;1.10;;
21503;SDS011;10913;51.992;9.228;2022-09-29T15:16:25;1.45;;;1.05;;
21503;SDS011;10913;51.992;9.228;2022-09-29T15:24:26;2.05;;;1.20;;
21503;SDS011;10913;51.992;9.228;2022-09-29T15:27:07;1.77;;;1.10;;
21503;SDS011;10913;51.992;9.228;2022-09-29T15:29:37;2.05;;;1.40;;
21503;SDS011;10913;51.992;9.228;2022-09-29T15:32:03;2.13;;;1.10;;
21503;SDS011;10913;51.992;9.228;2022-09-29T15:34:29;2.17;;;1.10;;
21503;SDS011;10913;51.992;9.228;2022-09-29T15:36:55;1.15;;;1.05;;
21503;SDS011;10913;51.992;9.228;2022-09-29T15:42:08;1.58;;;1.02;;
21503;SDS011;10913;51.992;9.228;2022-09-29T15:44:39;2.05;;;1.30;;
21503;SDS011;10913;51.992;9.228;2022-09-29T15:50:18;2.15;;;1.10;;
21503;SDS011;10913;51.992;9.228;2022-09-29T15:52:48;2.33;;;1.45;;
21503;SDS011;10913;51.992;9.228;2022-09-29T15:55:16;1.38;;;1.10;;
21503;SDS011;10913;51.992;9.228;2022-09-29T15:57:44;1.33;;;0.90;;
21503;SDS011;10913;51.992;9.228;2022-09-29T16:03:07;1.20;;;1.05;;
21503;SDS011;10913;51.992;9.228;2022-09-29T16:05:35;1.67;;;1.00;;
21503;SDS011;10913;51.992;9.228;2022-09-29T16:10:47;1.70;;;1.00;;
21503;SDS011;10913;51.992;9.228;2022-09-29T16:13:24;1.90;;;0.93;;
21503;SDS011;10913;51.992;9.228;2022-09-29T16:15:55;1.10;;;1.00;;
21503;SDS011;10913;51.992;9.228;2022-09-29T16:18:28;0.88;;;0.88;;
21503;SDS011;10913;51.992;9.228;2022-09-29T16:20:54;2.72;;;1.10;;
21503;SDS011;10913;51.992;9.228;2022-09-29T16:28:30;1.15;;;1.02;;
21503;SDS011;10913;51.992;9.228;2022-09-29T16:31:09;1.00;;;1.00;;
21503;SDS011;10913;51.992;9.228;2022-09-29T16:33:42;2.13;;;1.00;;
21503;SDS011;10913;51.992;9.228;2022-09-29T16:36:16;1.35;;;1.00;;
21503;SDS011;10913;51.992;9.228;2022-09-29T16:38:44;1.25;;;1.05;;
21503;SDS011;10913;51.992;9.228;2022-09-29T16:43:36;1.25;;;0.90;;
21503;SDS011;10913;51.992;9.228;2022-09-29T16:46:04;1.35;;;1.20;;
21503;SDS011;10913;51.992;9.228;2022-09-29T16:48:35;1.98;;;1.10;;
21503;SDS011;10913;51.992;9.228;2022-09-29T16:51:07;1.27;;;1.17;;
21503;SDS011;10913;51.992;9.228;2022-09-29T16:53:44;1.42;;;1.33;;
21503;SDS011;10913;51.992;9.228;2022-09-29T16:56:24;1.88;;;1.15;;
21503;SDS011;10913;51.992;9.228;2022-09-29T16:59:04;1.80;;;1.10;;
21503;SDS011;10913;51.992;9.228;2022-09-29T17:01:35;2.53;;;1.25;;
21503;SDS011;10913;51.992;9.228;2022-09-29T17:04:01;1.13;;;1.13;;
21503;SDS011;10913;51.992;9.228;2022-09-29T17:06:27;2.33;;;1.25;;
21503;SDS011;10913;51.992;9.228;2022-09-29T17:08:55;1.77;;;1.20;;
21503;SDS011;10913;51.992;9.228;2022-09-29T17:11:21;1.30;;;1.20;;
21503;SDS011;10913;51.992;9.228;2022-09-29T17:13:47;1.80;;;1.48;;
21503;SDS011;10913;51.992;9.228;2022-09-29T17:16:12;2.50;;;1.40;;
21503;SDS011;10913;51.992;9.228;2022-09-29T17:18:45;1.60;;;1.50;;
21503;SDS011;10913;51.992;9.228;2022-09-29T17:21:13;1.98;;;1.33;;
21503;SDS011;10913;51.992;9.228;2022-09-29T17:23:39;2.08;;;1.45;;
21503;SDS011;10913;51.992;9.228;2022-09-29T17:26:04;2.65;;;1.40;;
21503;SDS011;10913;51.992;9.228;2022-09-29T17:28:56;1.50;;;1.40;;
21503;SDS011;10913;51.992;9.228;2022-09-29T17:31:24;1.55;;;1.30;;
21503;SDS011;10913;51.992;9.228;2022-09-29T17:33:50;1.60;;;1.50;;
21503;SDS011;10913;51.992;9.228;2022-09-29T17:36:15;2.55;;;1.40;;
21503;SDS011;10913;51.992;9.228;2022-09-29T17:38:41;1.75;;;1.60;;
21503;SDS011;10913;51.992;9.228;2022-09-29T17:41:07;1.45;;;1.35;;
21503;SDS011;10913;51.992;9.228;2022-09-29T17:43:40;2.97;;;1.30;;
21503;SDS011;10913;51.992;9.228;2022-09-29T17:46:10;2.25;;;1.48;;
21503;SDS011;10913;51.992;9.228;2022-09-29T17:48:37;1.50;;;1.40;;
21503;SDS011;10913;51.992;9.228;2022-09-29T17:51:02;2.00;;;1.60;;
21503;SDS011;10913;51.992;9.228;2022-09-29T17:53:30;2.13;;;1.60;;
21503;SDS011;10913;51.992;9.228;2022-09-29T17:55:56;2.25;;;1.60;;
21503;SDS011;10913;51.992;9.228;2022-09-29T17:58:21;2.47;;;1.65;;
21503;SDS011;10913;51.992;9.228;2022-09-29T18:00:48;2.03;;;1.40;;
21503;SDS011;10913;51.992;9.228;2022-09-29T18:03:16;2.47;;;1.50;;
21503;SDS011;10913;51.992;9.228;2022-09-29T18:05:44;2.70;;;1.60;;
21503;SDS011;10913;51.992;9.228;2022-09-29T18:08:15;1.85;;;1.50;;
21503;SDS011;10913;51.992;9.228;2022-09-29T18:10:52;2.38;;;1.70;;
21503;SDS011;10913;51.992;9.228;2022-09-29T18:13:22;1.70;;;1.60;;
21503;SDS011;10913;51.992;9.228;2022-09-29T18:15:49;2.67;;;1.90;;
21503;SDS011;10913;51.992;9.228;2022-09-29T18:18:16;3.85;;;1.88;;
21503;SDS011;10913;51.992;9.228;2022-09-29T18:20:43;1.70;;;1.60;;
21503;SDS011;10913;51.992;9.228;2022-09-29T18:23:11;2.28;;;1.70;;
21503;SDS011;10913;51.992;9.228;2022-09-29T18:25:39;1.77;;;1.67;;
21503;SDS011;10913;51.992;9.228;2022-09-29T18:28:07;2.08;;;1.77;;
21503;SDS011;10913;51.992;9.228;2022-09-29T18:30:34;2.55;;;2.00;;
21503;SDS011;10913;51.992;9.228;2022-09-29T18:33:03;2.22;;;1.70;;
21503;SDS011;10913;51.992;9.228;2022-09-29T18:35:33;2.10;;;1.90;;
21503;SDS011;10913;51.992;9.228;2022-09-29T18:38:00;1.90;;;1.80;;
21503;SDS011;10913;51.992;9.228;2022-09-29T18:40:27;2.08;;;1.85;;
21503;SDS011;10913;51.992;9.228;2022-09-29T18:42:54;3.50;;;3.20;;
21503;SDS011;10913;51.992;9.228;2022-09-29T18:45:22;3.78;;;3.40;;
21503;SDS011;10913;51.992;9.228;2022-09-29T18:47:51;3.78;;;3.05;;
21503;SDS011;10913;51.992;9.228;2022-09-29T18:50:29;2.80;;;2.60;;
21503;SDS011;10913;51.992;9.228;2022-09-29T18:52:57;2.85;;;2.55;;
21503;SDS011;10913;51.992;9.228;2022-09-29T18:55:25;2.67;;;2.47;;
21503;SDS011;10913;51.992;9.228;2022-09-29T18:57:54;2.97;;;2.40;;
21503;SDS011;10913;51.992;9.228;2022-09-29T19:00:22;3.10;;;2.40;;
21503;SDS011;10913;51.992;9.228;2022-09-29T19:02:49;2.30;;;2.20;;
21503;SDS011;10913;51.992;9.228;2022-09-29T19:05:17;2.63;;;2.42;;
21503;SDS011;10913;51.992;9.228;2022-09-29T19:07:47;2.78;;;2.45;;
21503;SDS011;10913;51.992;9.228;2022-09-29T19:10:15;2.30;;;2.20;;
21503;SDS011;10913;51.992;9.228;2022-09-29T19:12:42;2.60;;;2.40;;
21503;SDS011;10913;51.992;9.228;2022-09-29T19:15:13;2.60;;;2.40;;
21503;SDS011;10913;51.992;9.228;2022-09-29T19:17:40;2.55;;;2.35;;
21503;SDS011;10913;51.992;9.228;2022-09-29T19:20:07;4.22;;;2.60;;
21503;SDS011;10913;51.992;9.228;2022-09-29T19:22:33;2.70;;;2.50;;
21503;SDS011;10913;51.992;9.228;2022-09-29T19:25:04;3.15;;;2.58;;
21503;SDS011;10913;51.992;9.228;2022-09-29T19:27:30;2.42;;;2.22;;
21503;SDS011;10913;51.992;9.228;2022-09-29T19:29:56;2.65;;;2.28;;
21503;SDS011;10913;51.992;9.228;2022-09-29T19:32:22;4.22;;;3.20;;
21503;SDS011;10913;51.992;9.228;2022-09-29T19:34:48;4.60;;;3.80;;
21503;SDS011;10913;51.992;9.228;2022-09-29T19:37:14;6.50;;;4.65;;
21503;SDS011;10913;51.992;9.228;2022-09-29T19:39:40;7.10;;;4.65;;
21503;SDS011;10913;51.992;9.228;2022-09-29T19:42:05;6.65;;;4.35;;
21503;SDS011;10913;51.992;9.228;2022-09-29T19:44:34;4.93;;;4.28;;
21503;SDS011;10913;51.992;9.228;2022-09-29T19:47:01;5.65;;;4.50;;
21503;SDS011;10913;51.992;9.228;2022-09-29T19:49:26;4.32;;;3.72;;
21503;SDS011;10913;51.992;9.228;2022-09-29T19:51:52;4.35;;;3.38;;
21503;SDS011;10913;51.992;9.228;2022-09-29T19:54:21;3.53;;;3.13;;
21503;SDS011;10913;51.992;9.228;2022-09-29T19:56:58;3.25;;;2.58;;
21503;SDS011;10913;51.992;9.228;2022-09-29T19:59:27;3.60;;;3.30;;
21503;SDS011;10913;51.992;9.228;2022-09-29T20:01:56;5.20;;;3.55;;
21503;SDS011;10913;51.992;9.228;2022-09-29T20:04:23;3.75;;;3.45;;
21503;SDS011;10913;51.992;9.228;2022-09-29T20:06:50;4.35;;;3.50;;
21503;SDS011;10913;51.992;9.228;2022-09-29T20:09:16;4.53;;;3.38;;
21503;SDS011;10913;51.992;9.228;2022-09-29T20:11:43;3.05;;;2.72;;
21503;SDS011;10913;51.992;9.228;2022-09-29T20:14:11;3.58;;;2.65;;
21503;SDS011;10913;51.992;9.228;2022-09-29T20:16:39;3.03;;;2.58;;
21503;SDS011;10913;51.992;9.228;2022-09-29T20:19:07;2.60;;;2.40;;
21503;SDS011;10913;51.992;9.228;2022-09-29T20:21:34;2.78;;;2.58;;
21503;SDS011;10913;51.992;9.228;2022-09-29T20:24:03;3.28;;;2.45;;
21503;SDS011;10913;51.992;9.228;2022-09-29T20:26:29;2.88;;;2.67;;
21503;SDS011;10913;51.992;9.228;2022-09-29T20:28:54;2.72;;;2.53;;
21503;SDS011;10913;51.992;9.228;2022-09-29T20:31:20;2.95;;;2.65;;
21503;SDS011;10913;51.992;9.228;2022-09-29T20:33:47;3.30;;;3.00;;
21503;SDS011;10913;51.992;9.228;2022-09-29T20:36:14;3.92;;;3.40;;
21503;SDS011;10913;51.992;9.228;2022-09-29T20:38:41;3.53;;;3.22;;
21503;SDS011;10913;51.992;9.228;2022-09-29T20:41:08;3.42;;;3.10;;
21503;SDS011;10913;51.992;9.228;2022-09-29T20:43:34;3.97;;;3.10;;
21503;SDS011;10913;51.992;9.228;2022-09-29T20:46:01;3.17;;;2.90;;
21503;SDS011;10913;51.992;9.228;2022-09-29T20:48:29;3.47;;;3.03;;
21503;SDS011;10913;51.992;9.228;2022-09-29T20:50:55;2.78;;;2.58;;
21503;SDS011;10913;51.992;9.228;2022-09-29T20:53:24;3.50;;;3.17;;
21503;SDS011;10913;51.992;9.228;2022-09-29T20:55:58;3.25;;;3.00;;
21503;SDS011;10913;51.992;9.228;2022-09-29T20:58:26;3.35;;;3.15;;
21503;SDS011;10913;51.992;9.228;2022-09-29T21:00:53;3.00;;;2.80;;
21503;SDS011;10913;51.992;9.228;2022-09-29T21:03:19;3.17;;;2.75;;
21503;SDS011;10913;51.992;9.228;2022-09-29T21:05:49;3.58;;;2.90;;
21503;SDS011;10913;51.992;9.228;2022-09-29T21:08:14;2.88;;;2.67;;
21503;SDS011;10913;51.992;9.228;2022-09-29T21:10:40;3.38;;;3.03;;
21503;SDS011;10913;51.992;9.228;2022-09-29T21:13:06;4.70;;;3.35;;
21503;SDS011;10913;51.992;9.228;2022-09-29T21:15:32;3.40;;;3.10;;
21503;SDS011;10913;51.992;9.228;2022-09-29T21:17:58;3.00;;;2.72;;
21503;SDS011;10913;51.992;9.228;2022-09-29T21:20:24;3.42;;;3.13;;
21503;SDS011;10913;51.992;9.228;2022-09-29T21:22:49;3.70;;;3.40;;
21503;SDS011;10913;51.992;9.228;2022-09-29T21:25:14;7.53;;;4.85;;
21503;SDS011;10913;51.992;9.228;2022-09-29T21:27:40;7.35;;;6.65;;
21503;SDS011;10913;51.992;9.228;2022-09-29T21:30:06;5.78;;;5.18;;
21503;SDS011;10913;51.992;9.228;2022-09-29T21:32:31;5.53;;;5.03;;
21503;SDS011;10913;51.992;9.228;2022-09-29T21:34:57;6.13;;;4.95;;
21503;SDS011;10913;51.992;9.228;2022-09-29T21:37:22;7.28;;;6.53;;
21503;SDS011;10913;51.992;9.228;2022-09-29T21:39:48;11.05;;;8.73;;
21503;SDS011;10913;51.992;9.228;2022-09-29T21:42:13;13.18;;;10.48;;
21503;SDS011;10913;51.992;9.228;2022-09-29T21:44:39;10.65;;;9.52;;
21503;SDS011;10913;51.992;9.228;2022-09-29T21:47:05;10.80;;;7.93;;
21503;SDS011;10913;51.992;9.228;2022-09-29T21:49:30;8.85;;;7.75;;
21503;SDS011;10913;51.992;9.228;2022-09-29T21:51:56;8.55;;;7.65;;
21503;SDS011;10913;51.992;9.228;2022-09-29T21:54:22;9.80;;;7.97;;
21503;SDS011;10913;51.992;9.228;2022-09-29T21:56:49;10.93;;;8.73;;
21503;SDS011;10913;51.992;9.228;2022-09-29T21:59:16;8.32;;;7.40;;
21503;SDS011;10913;51.992;9.228;2022-09-29T22:01:43;8.93;;;8.02;;
21503;SDS011;10913;51.992;9.228;2022-09-29T22:04:09;9.57;;;8.60;;
21503;SDS011;10913;51.992;9.228;2022-09-29T22:06:36;9.82;;;8.85;;
21503;SDS011;10913;51.992;9.228;2022-09-29T22:09:03;9.02;;;8.13;;
21503;SDS011;10913;51.992;9.228;2022-09-29T22:11:31;8.38;;;7.47;;
21503;SDS011;10913;51.992;9.228;2022-09-29T22:14:03;6.82;;;6.22;;
21503;SDS011;10913;51.992;9.228;2022-09-29T22:16:30;6.18;;;5.57;;
21503;SDS011;10913;51.992;9.228;2022-09-29T22:18:57;7.13;;;6.40;;
21503;SDS011;10913;51.992;9.228;2022-09-29T22:21:24;7.22;;;6.53;;
21503;SDS011;10913;51.992;9.228;2022-09-29T22:23:54;6.03;;;5.43;;
21503;SDS011;10913;51.992;9.228;2022-09-29T22:26:22;5.85;;;5.32;;
21503;SDS011;10913;51.992;9.228;2022-09-29T22:28:48;5.53;;;5.03;;
21503;SDS011;10913;51.992;9.228;2022-09-29T22:31:15;4.97;;;4.57;;
21503;SDS011;10913;51.992;9.228;2022-09-29T22:33:42;5.10;;;4.60;;
21503;SDS011;10913;51.992;9.228;2022-09-29T22:36:08;4.80;;;4.40;;
21503;SDS011;10913;51.992;9.228;2022-09-29T22:38:35;4.95;;;4.55;;
21503;SDS011;10913;51.992;9.228;2022-09-29T22:41:09;5.43;;;4.93;;
21503;SDS011;10913;51.992;9.228;2022-09-29T22:43:36;5.45;;;4.95;;
21503;SDS011;10913;51.992;9.228;2022-09-29T22:46:02;5.47;;;4.97;;
21503;SDS011;10913;51.992;9.228;2022-09-29T22:48:28;5.63;;;5.05;;
21503;SDS011;10913;51.992;9.228;2022-09-29T22:50:54;5.78;;;4.70;;
21503;SDS011;10913;51.992;9.228;2022-09-29T22:53:19;5.57;;;4.82;;
21503;SDS011;10913;51.992;9.228;2022-09-29T22:55:45;5.30;;;4.80;;
21503;SDS011;10913;51.992;9.228;2022-09-29T22:58:11;5.18;;;4.78;;
21503;SDS011;10913;51.992;9.228;2022-09-29T23:00:37;5.05;;;4.65;;
21503;SDS011;10913;51.992;9.228;2022-09-29T23:03:05;5.20;;;4.72;;
21503;SDS011;10913;51.992;9.228;2022-09-29T23:05:31;5.50;;;4.90;;
21503;SDS011;10913;51.992;9.228;2022-09-29T23:07:57;5.22;;;4.72;;
21503;SDS011;10913;51.992;9.228;2022-09-29T23:10:23;5.72;;;4.50;;
21503;SDS011;10913;51.992;9.228;2022-09-29T23:12:49;5.18;;;4.78;;
21503;SDS011;10913;51.992;9.228;2022-09-29T23:15:15;4.70;;;4.30;;
21503;SDS011;10913;51.992;9.228;2022-09-29T23:17:41;5.28;;;4.78;;
21503;SDS011;10913;51.992;9.228;2022-09-29T23:20:07;5.22;;;4.82;;
21503;SDS011;10913;51.992;9.228;2022-09-29T23:22:33;4.90;;;4.50;;
21503;SDS011;10913;51.992;9.228;2022-09-29T23:24:59;5.10;;;4.70;;
21503;SDS011;10913;51.992;9.228;2022-09-29T23:27:24;4.90;;;4.50;;
21503;SDS011;10913;51.992;9.228;2022-09-29T23:29:50;5.20;;;4.70;;
21503;SDS011;10913;51.992;9.228;2022-09-29T23:32:16;5.30;;;4.90;;
21503;SDS011;10913;51.992;9.228;2022-09-29T23:34:43;5.15;;;4.72;;
21503;SDS011;10913;51.992;9.228;2022-09-29T23:37:09;5.78;;;5.28;;
21503;SDS011;10913;51.992;9.228;2022-09-29T23:39:35;5.82;;;5.30;;
21503;SDS011;10913;51.992;9.228;2022-09-29T23:42:01;5.72;;;5.25;;
21503;SDS011;10913;51.992;9.228;2022-09-29T23:44:28;5.50;;;5.07;;
21503;SDS011;10913;51.992;9.228;2022-09-29T23:46:54;5.40;;;4.90;;
21503;SDS011;10913;51.992;9.228;2022-09-29T23:49:24;5.57;;;5.07;;
21503;SDS011;10913;51.992;9.228;2022-09-29T23:51:55;5.07;;;4.68;;
21503;SDS011;10913;51.992;9.228;2022-09-29T23:54:23;5.50;;;5.03;;
21503;SDS011;10913;51.992;9.228;2022-09-29T23:56:50;5.00;;;4.60;;
21503;SDS011;10913;51.992;9.228;2022-09-29T23:59:17;4.90;;;4.50;;
